Kitwanga, Canada
Current Conditions -  °F | °C
As of 9:00 PM on Saturday 22 Nov 2014 (Local Time) from CYYD Reporting Station
Broken Clouds Broken Clouds  
Wind Chill: 27°   Ceiling: 8500
Heat Index: 34°   Visibility: 9mi
Dew Point: 32°   Wind: 8mph
Humidity: 93%   Direction: 150°SSE
Pressure: 29.59"   Gusts: NA
Location:  55.1°N, 128.07°W
Report Text: CYYD 230500Z AUTO 15007KT 9SM SCT070 BKN085 BKN180 01/M00 A2959 RMK SLP038
Loading
Personal Weather Stations






























Interactive Weather Map New forecast layout! Learn more

10-Day Weather Forecast

Advertisements
Track Severe Weather on mobile